Time;durP1;ratioP1;P1;durP2;ratioP2;P2;SDS_P1;SDS_P2;PMS_P1;PMS_P2;Temp;Humidity;BMP_temperature;BMP_pressure;BME280_temperature;BME280_humidity;BME280_pressure;Samples;Min_cycle;Max_cycle;Signal;HPM_P1;HPM_P2
2021/01/05 00:01:49;;;;;;;;;43.50;40.00;;;;;;;;5009541;28;11480;-82
2021/01/05 00:04:16;;;;;;;;;36.50;35.50;;;;;;;;5005957;28;11649;-80
2021/01/05 00:06:43;;;;;;;;;48.25;39.75;;;;;;;;4992320;28;11551;-82
2021/01/05 00:09:11;;;;;;;;;48.50;39.00;;;;;;;;5008851;28;11611;-78
2021/01/05 00:11:56;;;;;;;;;46.75;40.50;;;;;;;;4985236;28;11654;-78
2021/01/05 00:14:23;;;;;;;;;40.75;38.25;;;;;;;;5004033;28;11579;-80
2021/01/05 00:16:50;;;;;;;;;41.50;37.75;;;;;;;;5005890;28;11629;-83
2021/01/05 00:19:18;;;;;;;;;53.00;45.25;;;;;;;;5008395;28;11561;-80
2021/01/05 00:21:48;;;;;;;;;42.00;38.25;;;;;;;;5016096;28;11657;-79
2021/01/05 00:24:16;;;;;;;;;44.25;35.75;;;;;;;;5004042;28;11540;-80
2021/01/05 00:26:43;;;;;;;;;47.00;44.00;;;;;;;;5007691;28;13811;-81
2021/01/05 00:29:10;;;;;;;;;43.00;36.00;;;;;;;;5007625;28;11662;-82
2021/01/05 00:31:38;;;;;;;;;50.00;44.25;;;;;;;;5009428;28;11500;-81
2021/01/05 00:34:05;;;;;;;;;50.50;41.75;;;;;;;;5008123;28;14188;-78
2021/01/05 00:36:32;;;;;;;;;56.25;45.75;;;;;;;;5011964;28;11639;-78
2021/01/05 00:38:59;;;;;;;;;46.00;42.25;;;;;;;;5007352;28;11591;-82
2021/01/05 00:41:27;;;;;;;;;44.25;40.75;;;;;;;;5005114;28;11631;-80
2021/01/05 00:43:54;;;;;;;;;50.00;44.00;;;;;;;;5007907;28;11571;-82
2021/01/05 00:46:21;;;;;;;;;50.00;43.75;;;;;;;;5010460;28;11752;-83
2021/01/05 00:48:48;;;;;;;;;44.75;35.50;;;;;;;;5012137;28;11737;-81
2021/01/05 00:51:16;;;;;;;;;39.25;35.75;;;;;;;;5009944;28;12387;-83
2021/01/05 00:53:43;;;;;;;;;40.25;32.25;;;;;;;;5007488;28;11567;-84
2021/01/05 00:56:10;;;;;;;;;42.00;33.75;;;;;;;;5005501;28;11670;-78
2021/01/05 00:58:38;;;;;;;;;54.75;41.75;;;;;;;;5016041;28;11598;-79
2021/01/05 01:01:05;;;;;;;;;40.25;38.75;;;;;;;;5008358;28;11591;-82
2021/01/05 01:03:32;;;;;;;;;38.50;34.25;;;;;;;;4990313;28;11533;-83
2021/01/05 01:05:59;;;;;;;;;42.00;39.75;;;;;;;;5004176;28;11543;-82
2021/01/05 01:08:26;;;;;;;;;43.25;36.50;;;;;;;;5004887;28;11529;-81
2021/01/05 01:10:53;;;;;;;;;48.50;38.75;;;;;;;;5003065;28;11650;-83
2021/01/05 01:13:19;;;;;;;;;37.00;33.25;;;;;;;;4986575;28;11513;-82
2021/01/05 01:15:47;;;;;;;;;43.75;34.00;;;;;;;;5007354;28;11539;-82
2021/01/05 01:18:14;;;;;;;;;35.75;28.75;;;;;;;;5003395;28;11640;-81
2021/01/05 01:20:41;;;;;;;;;37.75;37.25;;;;;;;;5002565;28;11664;-81
2021/01/05 01:23:07;;;;;;;;;41.50;34.50;;;;;;;;4987560;28;11542;-82
2021/01/05 01:25:34;;;;;;;;;40.75;39.00;;;;;;;;5006631;28;11550;-81
2021/01/05 01:28:03;;;;;;;;;34.25;34.25;;;;;;;;5003803;28;11509;-80
2021/01/05 01:30:29;;;;;;;;;48.00;36.25;;;;;;;;4991398;28;11508;-81
2021/01/05 01:32:57;;;;;;;;;35.00;28.25;;;;;;;;5010424;28;11655;-82
2021/01/05 01:35:24;;;;;;;;;46.25;37.50;;;;;;;;5004125;28;11548;-82
2021/01/05 01:37:51;;;;;;;;;46.50;36.00;;;;;;;;5001811;28;11525;-82
2021/01/05 01:40:32;;;;;;;;;41.75;34.25;;;;;;;;5005027;28;11520;-84
2021/01/05 01:43:00;;;;;;;;;29.50;27.25;;;;;;;;5003773;28;11610;-84
2021/01/05 01:45:27;;;;;;;;;40.25;34.00;;;;;;;;5004213;28;11528;-83
2021/01/05 01:47:55;;;;;;;;;31.75;27.25;;;;;;;;5004342;28;11536;-84
2021/01/05 01:50:26;;;;;;;;;38.00;32.25;;;;;;;;5002557;28;11624;-83
2021/01/05 01:53:25;;;;;;;;;48.25;41.00;;;;;;;;5004045;28;12472;-82
2021/01/05 01:56:01;;;;;;;;;35.50;31.75;;;;;;;;5019438;28;11649;-83
2021/01/05 01:58:53;;;;;;;;;33.00;29.50;;;;;;;;5023413;28;11634;-85
2021/01/05 02:01:42;;;;;;;;;41.25;32.50;;;;;;;;5021489;28;11523;-86
2021/01/05 02:04:32;;;;;;;;;34.00;32.00;;;;;;;;5022634;28;11519;-85
2021/01/05 02:07:19;;;;;;;;;37.50;35.50;;;;;;;;5023146;28;11540;-82
2021/01/05 02:09:57;;;;;;;;;41.25;28.50;;;;;;;;5024067;28;11655;-82
2021/01/05 02:12:29;;;;;;;;;33.75;31.75;;;;;;;;5021043;28;11620;-82
2021/01/05 02:15:05;;;;;;;;;41.50;31.50;;;;;;;;5024157;28;11515;-82
2021/01/05 02:18:04;;;;;;;;;29.75;28.25;;;;;;;;5022529;28;11539;-84
2021/01/05 02:20:36;;;;;;;;;44.75;36.50;;;;;;;;5022067;28;11642;-83
2021/01/05 02:23:27;;;;;;;;;33.75;30.75;;;;;;;;5023087;28;11516;-85
2021/01/05 02:26:00;;;;;;;;;34.00;34.00;;;;;;;;5022594;28;11532;-79
2021/01/05 02:28:33;;;;;;;;;42.75;37.25;;;;;;;;5023432;28;11677;-85
2021/01/05 02:31:04;;;;;;;;;40.75;34.25;;;;;;;;5020421;28;11467;-81
2021/01/05 02:33:40;;;;;;;;;28.50;27.50;;;;;;;;5021043;28;12534;-84
2021/01/05 02:36:45;;;;;;;;;45.50;42.50;;;;;;;;5017612;28;11507;-83
2021/01/05 02:39:44;;;;;;;;;47.50;40.25;;;;;;;;5017647;28;11732;-85
2021/01/05 02:42:38;;;;;;;;;46.75;34.75;;;;;;;;5018272;28;11638;-82
2021/01/05 02:45:11;;;;;;;;;31.75;31.75;;;;;;;;5025359;28;12405;-80
2021/01/05 02:48:08;;;;;;;;;41.00;32.50;;;;;;;;5020356;28;11545;-77
2021/01/05 02:50:49;;;;;;;;;47.00;42.25;;;;;;;;5021459;28;11543;-78
2021/01/05 02:53:53;;;;;;;;;35.75;29.00;;;;;;;;5027012;28;11515;-78
2021/01/05 02:56:58;;;;;;;;;39.75;33.50;;;;;;;;5029943;28;11545;-79
2021/01/05 03:00:02;;;;;;;;;43.75;38.75;;;;;;;;5028371;28;11609;-80
2021/01/05 03:02:56;;;;;;;;;48.75;43.25;;;;;;;;5014988;28;12288;-83
2021/01/05 03:05:23;;;;;;;;;47.25;38.00;;;;;;;;5018413;28;11642;-83
2021/01/05 03:07:50;;;;;;;;;48.25;42.50;;;;;;;;5018971;28;11634;-82
2021/01/05 03:10:30;;;;;;;;;42.25;36.25;;;;;;;;5018474;28;11558;-82
2021/01/05 03:13:17;;;;;;;;;45.75;35.50;;;;;;;;5023594;28;11660;-80
2021/01/05 03:15:48;;;;;;;;;40.75;31.75;;;;;;;;5024138;28;11643;-81
2021/01/05 03:18:22;;;;;;;;;50.25;42.50;;;;;;;;5016765;28;11553;-83
2021/01/05 03:20:56;;;;;;;;;37.25;36.25;;;;;;;;5018096;28;11642;-82
2021/01/05 03:23:24;;;;;;;;;46.00;44.00;;;;;;;;5024140;28;11570;-85
2021/01/05 03:25:52;;;;;;;;;47.50;35.75;;;;;;;;5035645;28;11538;-81
2021/01/05 03:28:24;;;;;;;;;26.25;22.25;;;;;;;;5016747;28;11555;-83
2021/01/05 03:30:57;;;;;;;;;40.50;37.00;;;;;;;;5026842;28;11492;-81
2021/01/05 03:33:24;;;;;;;;;41.25;34.75;;;;;;;;5030500;28;11605;-79
2021/01/05 03:35:51;;;;;;;;;39.00;30.50;;;;;;;;5025086;28;11699;-81
2021/01/05 03:38:18;;;;;;;;;39.75;35.25;;;;;;;;5022235;28;11604;-80
2021/01/05 03:40:45;;;;;;;;;58.75;46.00;;;;;;;;5020895;28;11621;-80
2021/01/05 03:43:12;;;;;;;;;41.50;36.00;;;;;;;;5007349;28;12471;-79
2021/01/05 03:45:39;;;;;;;;;36.50;32.00;;;;;;;;5032195;28;11667;-77
2021/01/05 03:48:08;;;;;;;;;41.25;36.50;;;;;;;;5029507;28;11576;-80
2021/01/05 03:50:35;;;;;;;;;46.75;41.75;;;;;;;;5025768;28;11610;-80
2021/01/05 03:53:02;;;;;;;;;35.00;32.00;;;;;;;;5024759;28;11626;-79
2021/01/05 03:55:29;;;;;;;;;46.00;42.25;;;;;;;;5032735;28;12469;-83
2021/01/05 03:57:56;;;;;;;;;50.25;41.75;;;;;;;;5031010;28;11636;-82
2021/01/05 04:00:26;;;;;;;;;45.25;39.00;;;;;;;;5034013;28;11615;-80
2021/01/05 04:02:53;;;;;;;;;40.75;34.75;;;;;;;;5034381;28;11556;-83
2021/01/05 04:05:22;;;;;;;;;52.75;40.00;;;;;;;;5031111;28;11522;-83
2021/01/05 04:07:49;;;;;;;;;46.50;44.00;;;;;;;;5028213;28;11561;-82
2021/01/05 04:10:17;;;;;;;;;35.00;31.00;;;;;;;;5029886;28;14057;-84
2021/01/05 04:12:44;;;;;;;;;46.00;39.00;;;;;;;;5030924;28;11544;-81
2021/01/05 04:15:16;;;;;;;;;34.50;30.00;;;;;;;;5028947;28;11554;-81
2021/01/05 04:17:43;;;;;;;;;45.00;36.75;;;;;;;;5019615;28;11521;-83
2021/01/05 04:20:11;;;;;;;;;36.75;36.00;;;;;;;;5029090;28;11564;-83
2021/01/05 04:22:39;;;;;;;;;49.75;43.50;;;;;;;;5033512;28;11645;-82
2021/01/05 04:25:07;;;;;;;;;41.50;34.50;;;;;;;;5027698;28;11573;-82
2021/01/05 04:27:34;;;;;;;;;43.25;37.25;;;;;;;;5028471;28;11577;-83
2021/01/05 04:30:01;;;;;;;;;57.00;42.00;;;;;;;;5027627;28;11594;-83
2021/01/05 04:32:28;;;;;;;;;45.75;40.50;;;;;;;;5033491;28;11527;-82
2021/01/05 04:34:55;;;;;;;;;42.50;41.75;;;;;;;;5024125;28;11657;-83
2021/01/05 04:37:21;;;;;;;;;48.50;40.00;;;;;;;;5031323;28;11529;-84
2021/01/05 04:39:49;;;;;;;;;47.25;42.50;;;;;;;;5027341;28;11651;-83
2021/01/05 04:42:22;;;;;;;;;49.50;40.75;;;;;;;;5016943;28;11597;-83
2021/01/05 04:44:56;;;;;;;;;44.00;35.00;;;;;;;;5030710;28;11630;-83
2021/01/05 04:47:31;;;;;;;;;49.00;41.50;;;;;;;;4994119;28;11602;-82
2021/01/05 04:50:07;;;;;;;;;40.00;39.50;;;;;;;;5031695;28;11624;-82
2021/01/05 04:52:46;;;;;;;;;37.00;30.50;;;;;;;;5033774;28;11583;-83
2021/01/05 04:55:28;;;;;;;;;39.00;34.00;;;;;;;;5028567;28;12010;-83
2021/01/05 04:58:04;;;;;;;;;45.00;41.25;;;;;;;;5031070;28;11767;-84
2021/01/05 05:00:32;;;;;;;;;40.50;39.00;;;;;;;;5019581;28;11507;-83
2021/01/05 05:03:06;;;;;;;;;43.00;40.00;;;;;;;;5019263;28;11553;-84
2021/01/05 05:05:47;;;;;;;;;37.00;37.00;;;;;;;;5015304;28;11603;-84
2021/01/05 05:08:28;;;;;;;;;35.50;34.00;;;;;;;;5025297;28;11587;-83
2021/01/05 05:10:59;;;;;;;;;40.50;36.75;;;;;;;;5024180;28;11639;-83
2021/01/05 05:13:33;;;;;;;;;43.50;39.25;;;;;;;;5030682;28;11627;-79
2021/01/05 05:16:11;;;;;;;;;46.00;41.67;;;;;;;;5023649;28;11593;-78
2021/01/05 05:18:49;;;;;;;;;37.00;35.00;;;;;;;;5015688;28;11532;-86
2021/01/05 05:21:28;;;;;;;;;52.75;38.00;;;;;;;;5006278;28;11544;-83
2021/01/05 05:24:07;;;;;;;;;44.00;38.50;;;;;;;;5009487;28;11572;-83
2021/01/05 05:26:43;;;;;;;;;53.25;43.00;;;;;;;;5012744;28;11586;-83
2021/01/05 05:29:23;;;;;;;;;44.25;37.25;;;;;;;;5035999;28;11533;-82
2021/01/05 05:31:52;;;;;;;;;47.75;40.50;;;;;;;;5025903;28;12272;-82
2021/01/05 05:34:26;;;;;;;;;50.33;45.67;;;;;;;;5038003;28;11648;-83
2021/01/05 05:37:16;;;;;;;;;57.00;41.50;;;;;;;;5015690;28;11577;-81
2021/01/05 05:39:58;;;;;;;;;52.00;46.00;;;;;;;;5028212;28;11581;-84
2021/01/05 05:42:52;;;;;;;;;64.67;48.00;;;;;;;;5033346;28;11606;-80
2021/01/05 05:45:23;;;;;;;;;46.75;41.50;;;;;;;;5035777;28;11672;-81
2021/01/05 05:47:55;;;;;;;;;46.25;44.25;;;;;;;;5041310;28;11598;-79
2021/01/05 05:50:26;;;;;;;;;45.50;39.25;;;;;;;;5014763;28;11566;-83
2021/01/05 05:52:57;;;;;;;;;48.50;43.75;;;;;;;;5019021;28;12507;-84
2021/01/05 05:55:45;;;;;;;;;54.50;43.50;;;;;;;;5026429;28;11642;-82
2021/01/05 05:58:15;;;;;;;;;44.75;37.75;;;;;;;;5032641;28;11592;-85
2021/01/05 06:00:44;;;;;;;;;47.75;39.50;;;;;;;;5024829;28;11519;-84
2021/01/05 06:03:14;;;;;;;;;46.25;42.75;;;;;;;;5031088;28;11557;-84
2021/01/05 06:05:42;;;;;;;;;39.25;35.50;;;;;;;;5027544;28;11576;-82
2021/01/05 06:08:12;;;;;;;;;38.25;34.00;;;;;;;;5034655;28;11612;-83
2021/01/05 06:10:39;;;;;;;;;43.25;36.25;;;;;;;;5021893;28;11669;-83
2021/01/05 06:13:06;;;;;;;;;30.75;25.25;;;;;;;;5024388;28;12405;-83
2021/01/05 06:15:34;;;;;;;;;40.00;35.25;;;;;;;;5006271;28;11562;-84
2021/01/05 06:18:02;;;;;;;;;35.50;30.25;;;;;;;;5021692;28;11588;-83
2021/01/05 06:20:29;;;;;;;;;49.75;37.50;;;;;;;;5021704;28;11594;-83
2021/01/05 06:22:56;;;;;;;;;36.50;35.75;;;;;;;;5025898;28;11560;-80
2021/01/05 06:25:24;;;;;;;;;33.75;28.00;;;;;;;;5023872;28;11648;-78
2021/01/05 06:27:51;;;;;;;;;38.25;31.50;;;;;;;;5019090;28;11595;-80
2021/01/05 06:30:19;;;;;;;;;46.75;39.75;;;;;;;;5024092;28;11643;-81
2021/01/05 06:32:47;;;;;;;;;52.00;42.25;;;;;;;;5024511;28;11560;-82
2021/01/05 06:35:15;;;;;;;;;44.00;40.75;;;;;;;;5027562;28;11574;-78
2021/01/05 06:37:42;;;;;;;;;49.00;37.50;;;;;;;;5026456;28;11597;-80
2021/01/05 06:40:10;;;;;;;;;42.00;34.75;;;;;;;;5028100;28;11620;-82
2021/01/05 06:42:37;;;;;;;;;50.00;39.00;;;;;;;;5006649;28;11572;-81
2021/01/05 06:45:05;;;;;;;;;44.25;32.00;;;;;;;;5026953;28;11566;-81
2021/01/05 06:47:32;;;;;;;;;44.50;39.25;;;;;;;;5024104;28;11577;-80
2021/01/05 06:50:00;;;;;;;;;42.25;42.25;;;;;;;;5021111;28;11589;-81
2021/01/05 06:52:27;;;;;;;;;41.75;33.75;;;;;;;;5023678;28;11564;-79
2021/01/05 06:54:54;;;;;;;;;46.75;37.75;;;;;;;;5021622;28;11700;-79
2021/01/05 06:57:20;;;;;;;;;43.25;38.75;;;;;;;;5023567;28;11601;-79
2021/01/05 06:59:49;;;;;;;;;45.50;38.25;;;;;;;;5027719;28;11584;-82
2021/01/05 07:02:16;;;;;;;;;38.75;35.50;;;;;;;;5019181;28;11531;-73
2021/01/05 07:04:43;;;;;;;;;40.25;36.00;;;;;;;;5024958;28;11617;-71
2021/01/05 07:07:13;;;;;;;;;51.00;40.75;;;;;;;;5030924;28;11712;-71
2021/01/05 07:09:41;;;;;;;;;47.25;40.75;;;;;;;;5025051;28;11678;-71
2021/01/05 07:12:08;;;;;;;;;51.50;43.00;;;;;;;;5031000;28;11591;-71
2021/01/05 07:14:36;;;;;;;;;47.50;42.00;;;;;;;;5024336;28;11558;-73
2021/01/05 07:17:02;;;;;;;;;47.50;43.00;;;;;;;;5033773;28;11640;-72
2021/01/05 07:19:30;;;;;;;;;63.75;42.75;;;;;;;;5025076;28;11584;-71
2021/01/05 07:21:56;;;;;;;;;52.75;42.50;;;;;;;;5031804;28;11642;-72
2021/01/05 07:24:24;;;;;;;;;51.25;43.00;;;;;;;;5026532;28;11636;-71
2021/01/05 07:26:51;;;;;;;;;40.00;39.75;;;;;;;;5041581;28;11564;-70
2021/01/05 07:29:21;;;;;;;;;50.00;43.50;;;;;;;;5025880;28;11590;-70
2021/01/05 07:31:48;;;;;;;;;53.75;46.00;;;;;;;;5030467;28;11531;-72
2021/01/05 07:34:15;;;;;;;;;49.00;38.25;;;;;;;;5034075;28;11733;-72
2021/01/05 07:36:45;;;;;;;;;44.75;38.25;;;;;;;;5025569;28;12406;-71
2021/01/05 07:39:14;;;;;;;;;42.50;36.75;;;;;;;;5028594;28;12374;-71
2021/01/05 07:41:41;;;;;;;;;40.25;39.00;;;;;;;;5029427;28;11584;-70
2021/01/05 07:44:08;;;;;;;;;46.50;40.00;;;;;;;;5032849;28;12268;-70
2021/01/05 07:46:35;;;;;;;;;45.75;39.75;;;;;;;;5036314;28;11587;-73
2021/01/05 07:49:01;;;;;;;;;51.50;43.75;;;;;;;;5037255;28;11749;-71
2021/01/05 07:51:28;;;;;;;;;46.67;42.33;;;;;;;;5044609;28;11552;-71
2021/01/05 07:53:55;;;;;;;;;45.75;39.75;;;;;;;;5039775;28;11549;-72
2021/01/05 07:56:22;;;;;;;;;39.00;37.50;;;;;;;;5040567;28;11589;-73
2021/01/05 07:58:50;;;;;;;;;57.33;46.67;;;;;;;;5039911;28;11668;-71
2021/01/05 08:01:16;;;;;;;;;49.50;40.75;;;;;;;;5034076;28;11532;-72
2021/01/05 08:03:43;;;;;;;;;53.67;43.00;;;;;;;;5031417;28;11557;-71
2021/01/05 08:06:11;;;;;;;;;53.50;46.50;;;;;;;;5022848;28;11537;-71
2021/01/05 08:08:40;;;;;;;;;36.75;36.75;;;;;;;;5036773;28;11582;-70
2021/01/05 08:11:07;;;;;;;;;54.50;38.50;;;;;;;;5029478;28;12346;-69
2021/01/05 08:13:34;;;;;;;;;53.75;42.75;;;;;;;;5024668;28;11614;-71
2021/01/05 08:16:01;;;;;;;;;49.00;41.50;;;;;;;;5031152;28;11616;-71
2021/01/05 08:18:28;;;;;;;;;47.67;43.67;;;;;;;;5020492;28;12324;-69
2021/01/05 08:20:55;;;;;;;;;47.25;38.25;;;;;;;;5031726;28;11676;-71
2021/01/05 08:23:22;;;;;;;;;47.00;42.50;;;;;;;;5029522;28;11618;-72
2021/01/05 08:25:49;;;;;;;;;55.00;45.50;;;;;;;;5019507;28;12425;-71
2021/01/05 08:28:16;;;;;;;;;33.25;33.25;;;;;;;;5032787;28;11570;-69
2021/01/05 08:30:43;;;;;;;;;69.33;52.33;;;;;;;;5027993;28;11512;-71
2021/01/05 08:33:12;;;;;;;;;45.75;40.25;;;;;;;;5026759;28;11670;-71
2021/01/05 08:35:39;;;;;;;;;51.25;43.25;;;;;;;;5035872;28;11579;-72
2021/01/05 08:38:06;;;;;;;;;66.67;51.00;;;;;;;;5030276;28;11573;-71
2021/01/05 08:40:35;;;;;;;;;54.33;45.33;;;;;;;;5033913;28;11653;-71
2021/01/05 08:43:03;;;;;;;;;56.50;47.25;;;;;;;;5029767;28;11608;-72
2021/01/05 08:45:31;;;;;;;;;49.00;35.00;;;;;;;;5033708;28;11651;-71
2021/01/05 08:47:58;;;;;;;;;58.50;46.75;;;;;;;;5030093;28;11588;-71
2021/01/05 08:50:28;;;;;;;;;45.33;40.00;;;;;;;;5021435;28;11742;-70
2021/01/05 08:52:56;;;;;;;;;55.00;46.33;;;;;;;;5032616;28;11540;-72
2021/01/05 08:55:22;;;;;;;;;58.00;45.50;;;;;;;;5030455;28;12399;-72
2021/01/05 08:57:49;;;;;;;;;57.50;47.50;;;;;;;;5035452;28;11570;-72
2021/01/05 09:00:17;;;;;;;;;60.75;50.50;;;;;;;;5026930;28;11584;-73
2021/01/05 09:02:44;;;;;;;;;112.00;87.00;;;;;;;;5023929;28;12400;-71
2021/01/05 09:05:12;;;;;;;;;84.33;66.33;;;;;;;;5037903;28;8867;-71
2021/01/05 09:07:40;;;;;;;;;67.67;51.00;;;;;;;;5031542;28;8851;-71
2021/01/05 09:10:09;;;;;;;;;61.33;52.00;;;;;;;;5034405;28;8860;-71
2021/01/05 09:12:37;;;;;;;;;64.67;54.33;;;;;;;;5039056;28;11589;-71
2021/01/05 09:15:04;;;;;;;;;69.00;53.33;;;;;;;;5043236;28;8842;-71
2021/01/05 09:17:31;;;;;;;;;61.33;50.33;;;;;;;;5039777;28;8892;-72
2021/01/05 09:19:58;;;;;;;;;60.33;45.67;;;;;;;;5033125;28;11674;-71
2021/01/05 09:22:25;;;;;;;;;46.33;44.33;;;;;;;;5035289;28;11592;-71
2021/01/05 09:24:53;;;;;;;;;57.00;47.33;;;;;;;;5024885;28;11618;-71
2021/01/05 09:27:20;;;;;;;;;63.67;43.67;;;;;;;;5038203;28;12371;-71
2021/01/05 09:29:46;;;;;;;;;61.67;47.67;;;;;;;;5024155;28;11704;-71
2021/01/05 09:32:13;;;;;;;;;56.33;44.33;;;;;;;;5041998;28;11517;-72
2021/01/05 09:34:40;;;;;;;;;47.00;43.33;;;;;;;;5033445;28;11618;-71
2021/01/05 09:37:07;;;;;;;;;51.00;41.33;;;;;;;;5031429;28;11578;-71
2021/01/05 09:39:34;;;;;;;;;52.33;40.33;;;;;;;;5025332;28;11586;-71
2021/01/05 09:42:04;;;;;;;;;42.50;39.75;;;;;;;;5043573;28;11577;-71
2021/01/05 09:44:31;;;;;;;;;59.00;49.67;;;;;;;;5042139;28;11528;-71
2021/01/05 09:47:01;;;;;;;;;51.75;45.50;;;;;;;;5023911;28;11604;-71
2021/01/05 09:49:29;;;;;;;;;56.75;46.00;;;;;;;;5026888;28;11594;-71
2021/01/05 09:51:58;;;;;;;;;52.00;45.75;;;;;;;;5033708;28;11579;-71
2021/01/05 09:54:25;;;;;;;;;51.00;43.50;;;;;;;;5041102;28;11584;-70
2021/01/05 09:56:52;;;;;;;;;56.25;41.75;;;;;;;;5024959;28;11570;-71
2021/01/05 09:59:21;;;;;;;;;58.75;48.00;;;;;;;;5028318;28;11512;-70
2021/01/05 10:01:48;;;;;;;;;49.00;42.75;;;;;;;;5027623;28;11506;-71
2021/01/05 10:04:15;;;;;;;;;66.00;52.67;;;;;;;;5021240;28;11598;-69
2021/01/05 10:06:42;;;;;;;;;53.50;46.75;;;;;;;;5030042;28;11515;-71
2021/01/05 10:09:09;;;;;;;;;48.00;45.25;;;;;;;;5009789;28;11644;-69
2021/01/05 10:11:37;;;;;;;;;60.00;47.33;;;;;;;;5027160;28;11550;-70
2021/01/05 10:14:05;;;;;;;;;51.33;45.33;;;;;;;;5028565;28;11674;-69
2021/01/05 10:16:33;;;;;;;;;53.50;43.75;;;;;;;;5027228;28;11597;-71
2021/01/05 10:19:01;;;;;;;;;64.33;50.00;;;;;;;;5025487;28;11544;-72
2021/01/05 10:21:35;;;;;;;;;64.67;49.67;;;;;;;;5024301;28;11599;-70
2021/01/05 10:24:03;;;;;;;;;66.33;51.67;;;;;;;;5024735;28;11582;-70
2021/01/05 10:26:30;;;;;;;;;75.67;58.00;;;;;;;;5023685;28;11565;-68
2021/01/05 10:28:57;;;;;;;;;75.33;57.00;;;;;;;;5024423;28;8950;-70
2021/01/05 10:31:24;;;;;;;;;55.50;45.75;;;;;;;;5026005;28;8826;-71
2021/01/05 10:33:52;;;;;;;;;59.25;44.50;;;;;;;;5021572;28;12695;-70
2021/01/05 10:36:20;;;;;;;;;74.67;60.67;;;;;;;;5021416;28;11585;-70
2021/01/05 10:38:48;;;;;;;;;61.75;52.50;;;;;;;;5023694;28;8883;-71
2021/01/05 10:41:16;;;;;;;;;69.67;55.33;;;;;;;;5022357;28;11567;-71
2021/01/05 10:43:43;;;;;;;;;68.00;56.33;;;;;;;;5021682;28;11587;-71
2021/01/05 10:46:10;;;;;;;;;61.50;46.00;;;;;;;;5022029;28;11530;-71
2021/01/05 10:48:37;;;;;;;;;55.75;45.25;;;;;;;;5023527;28;11603;-70
2021/01/05 10:51:06;;;;;;;;;53.25;44.75;;;;;;;;5026379;28;11549;-70
2021/01/05 10:53:34;;;;;;;;;63.67;50.00;;;;;;;;5025177;28;11580;-71
2021/01/05 10:56:01;;;;;;;;;49.50;45.25;;;;;;;;5006444;28;11715;-70
2021/01/05 10:58:28;;;;;;;;;53.25;47.00;;;;;;;;5003224;28;12418;-71
2021/01/05 11:00:55;;;;;;;;;41.50;41.25;;;;;;;;5001210;28;11564;-71
2021/01/05 11:03:22;;;;;;;;;62.00;48.67;;;;;;;;5004317;28;12277;-71
2021/01/05 11:05:49;;;;;;;;;54.50;45.25;;;;;;;;4983581;28;12448;-70
2021/01/05 11:08:16;;;;;;;;;61.75;46.00;;;;;;;;5010031;28;11650;-71
2021/01/05 11:10:43;;;;;;;;;56.25;48.75;;;;;;;;4992251;28;11574;-72
2021/01/05 11:13:10;;;;;;;;;57.75;46.00;;;;;;;;5011877;28;11551;-72
2021/01/05 11:15:37;;;;;;;;;56.75;46.75;;;;;;;;4982652;28;11573;-73
2021/01/05 11:18:04;;;;;;;;;50.50;45.75;;;;;;;;5004027;28;11569;-71
2021/01/05 11:20:30;;;;;;;;;42.00;39.25;;;;;;;;4999920;28;11511;-73
2021/01/05 11:22:57;;;;;;;;;60.00;50.00;;;;;;;;5001353;28;11549;-71
2021/01/05 11:25:25;;;;;;;;;50.25;43.00;;;;;;;;5011635;28;11699;-71
2021/01/05 11:27:51;;;;;;;;;65.75;53.00;;;;;;;;5019621;28;11530;-71
2021/01/05 11:30:21;;;;;;;;;53.00;43.00;;;;;;;;5002968;28;11635;-72
2021/01/05 11:32:48;;;;;;;;;53.00;47.75;;;;;;;;5007962;28;11505;-70
2021/01/05 11:35:15;;;;;;;;;45.75;42.25;;;;;;;;5021148;28;11540;-68
2021/01/05 11:37:42;;;;;;;;;59.00;45.25;;;;;;;;5002981;28;11526;-71
2021/01/05 11:40:10;;;;;;;;;58.50;45.25;;;;;;;;5017456;28;11538;-70
2021/01/05 11:42:39;;;;;;;;;57.25;49.00;;;;;;;;4987723;28;11634;-69
2021/01/05 11:45:07;;;;;;;;;52.75;43.75;;;;;;;;4999106;28;11562;-73
2021/01/05 11:47:34;;;;;;;;;64.00;50.00;;;;;;;;5006767;28;11623;-73
2021/01/05 11:50:02;;;;;;;;;57.25;49.00;;;;;;;;5014627;28;11524;-69
2021/01/05 11:52:30;;;;;;;;;59.75;42.00;;;;;;;;5006898;28;11635;-71
2021/01/05 11:54:57;;;;;;;;;60.75;46.25;;;;;;;;5026588;28;11584;-70
2021/01/05 11:57:24;;;;;;;;;53.25;45.75;;;;;;;;5008921;28;11541;-72
2021/01/05 11:59:52;;;;;;;;;64.00;46.50;;;;;;;;5026072;28;11563;-70
2021/01/05 12:02:19;;;;;;;;;55.50;48.25;;;;;;;;5017004;28;11500;-71
2021/01/05 12:04:46;;;;;;;;;55.00;45.75;;;;;;;;5015189;28;11565;-71
2021/01/05 12:07:12;;;;;;;;;55.00;45.50;;;;;;;;5012300;28;12395;-71
2021/01/05 12:09:39;;;;;;;;;50.00;42.50;;;;;;;;5024633;28;11613;-71
2021/01/05 12:12:07;;;;;;;;;70.00;49.75;;;;;;;;5018431;28;11574;-72
2021/01/05 12:14:34;;;;;;;;;57.00;44.75;;;;;;;;5010593;28;11646;-72
2021/01/05 12:17:04;;;;;;;;;30.75;16.00;;;;;;;;5020187;28;11690;-77
2021/01/05 12:19:33;;;;;;;;;56.00;45.00;;;;;;;;5003185;28;11591;-72
2021/01/05 12:22:03;;;;;;;;;65.25;48.50;;;;;;;;5019670;28;11583;-72
2021/01/05 12:24:31;;;;;;;;;53.50;46.25;;;;;;;;5004763;28;11587;-72
2021/01/05 12:26:59;;;;;;;;;51.75;44.50;;;;;;;;5020973;28;12908;-72
2021/01/05 12:29:28;;;;;;;;;62.75;51.00;;;;;;;;5018299;28;12364;-70
2021/01/05 12:31:58;;;;;;;;;68.75;51.75;;;;;;;;5014975;28;12516;-73
2021/01/05 12:34:27;;;;;;;;;67.50;51.00;;;;;;;;5011774;28;11591;-71
2021/01/05 12:36:55;;;;;;;;;69.25;52.50;;;;;;;;5016957;28;11596;-71
2021/01/05 12:39:23;;;;;;;;;58.25;48.75;;;;;;;;5034582;28;11588;-69
2021/01/05 12:41:50;;;;;;;;;66.00;55.50;;;;;;;;5011780;28;11618;-73
2021/01/05 12:44:19;;;;;;;;;55.50;46.75;;;;;;;;5023559;28;11567;-70
2021/01/05 12:46:47;;;;;;;;;66.75;47.75;;;;;;;;5032811;28;11590;-71
2021/01/05 12:49:15;;;;;;;;;64.75;49.25;;;;;;;;5031488;28;11590;-71
2021/01/05 12:51:44;;;;;;;;;68.75;54.00;;;;;;;;5028843;28;11668;-70
2021/01/05 12:54:14;;;;;;;;;43.75;41.75;;;;;;;;5025435;28;11574;-71
2021/01/05 12:56:40;;;;;;;;;55.25;45.25;;;;;;;;5041487;28;11546;-72
2021/01/05 12:59:07;;;;;;;;;50.75;42.00;;;;;;;;5024632;28;11684;-72
2021/01/05 13:01:34;;;;;;;;;56.50;43.00;;;;;;;;5040134;28;11529;-72
2021/01/05 13:04:01;;;;;;;;;56.25;49.00;;;;;;;;5026934;28;12488;-68
2021/01/05 13:06:31;;;;;;;;;45.50;41.75;;;;;;;;5035683;28;11551;-70
2021/01/05 13:08:59;;;;;;;;;51.00;42.00;;;;;;;;5042847;28;11578;-70
2021/01/05 13:11:28;;;;;;;;;50.25;43.00;;;;;;;;5029219;28;11680;-70
2021/01/05 13:13:55;;;;;;;;;56.00;43.00;;;;;;;;5037934;28;11582;-73
2021/01/05 13:16:26;;;;;;;;;53.25;42.75;;;;;;;;5029899;28;12333;-73
2021/01/05 13:18:54;;;;;;;;;52.25;45.50;;;;;;;;5032975;28;11698;-72
2021/01/05 13:21:28;;;;;;;;;56.50;46.25;;;;;;;;5030154;28;11633;-72
2021/01/05 13:23:57;;;;;;;;;57.25;49.00;;;;;;;;5036405;28;11635;-72
2021/01/05 13:26:25;;;;;;;;;56.00;47.00;;;;;;;;5039856;28;11584;-69
2021/01/05 13:28:52;;;;;;;;;52.25;40.50;;;;;;;;5022293;28;11589;-72
2021/01/05 13:31:19;;;;;;;;;53.25;44.25;;;;;;;;5020617;28;11637;-71
2021/01/05 13:33:46;;;;;;;;;56.00;45.00;;;;;;;;5018829;28;11633;-72
2021/01/05 13:36:22;;;;;;;;;43.25;38.75;;;;;;;;5029250;28;12262;-72
2021/01/05 13:38:49;;;;;;;;;48.25;42.50;;;;;;;;5032710;28;11562;-73
2021/01/05 13:41:27;;;;;;;;;45.00;38.50;;;;;;;;5034059;28;12218;-73
2021/01/05 13:43:55;;;;;;;;;47.75;39.50;;;;;;;;5026394;28;11573;-72
2021/01/05 13:46:23;;;;;;;;;52.75;45.00;;;;;;;;5023431;28;11717;-70
2021/01/05 13:48:50;;;;;;;;;41.25;33.25;;;;;;;;5032248;28;12386;-72
2021/01/05 13:51:24;;;;;;;;;45.75;40.50;;;;;;;;5031753;28;11600;-73
2021/01/05 13:53:50;;;;;;;;;48.50;43.00;;;;;;;;5041765;28;11591;-74
2021/01/05 13:56:17;;;;;;;;;49.75;41.50;;;;;;;;5040109;28;11606;-71
2021/01/05 13:58:45;;;;;;;;;62.75;47.25;;;;;;;;5028894;28;11592;-70
2021/01/05 14:01:17;;;;;;;;;63.75;50.00;;;;;;;;5026734;28;11677;-71
2021/01/05 14:03:45;;;;;;;;;79.00;58.33;;;;;;;;5022664;28;11578;-72
2021/01/05 14:06:19;;;;;;;;;58.25;46.75;;;;;;;;5023277;28;8862;-72
2021/01/05 14:08:49;;;;;;;;;52.00;40.75;;;;;;;;5023680;28;11552;-72
2021/01/05 14:11:17;;;;;;;;;62.00;47.50;;;;;;;;5031554;28;11602;-73
2021/01/05 14:13:46;;;;;;;;;70.33;57.00;;;;;;;;5027921;28;11567;-72
2021/01/05 14:16:14;;;;;;;;;41.75;41.50;;;;;;;;5031262;28;8848;-69
2021/01/05 14:18:44;;;;;;;;;41.25;40.00;;;;;;;;5034449;28;11557;-70
2021/01/05 14:21:11;;;;;;;;;40.00;38.75;;;;;;;;5030278;28;11556;-70
2021/01/05 14:23:38;;;;;;;;;50.25;40.50;;;;;;;;5038513;28;11670;-72
2021/01/05 14:26:06;;;;;;;;;54.00;45.25;;;;;;;;5026787;28;11599;-71
2021/01/05 14:28:32;;;;;;;;;41.00;39.50;;;;;;;;5028460;28;11575;-73
2021/01/05 14:31:00;;;;;;;;;46.25;42.00;;;;;;;;5024076;28;11559;-71
2021/01/05 14:33:27;;;;;;;;;47.00;36.25;;;;;;;;5027932;28;11571;-70